Terminal Aerodrome Forecast
Issued by NWS

Home | Current Version | Previous Version | Text Only | Print | Product List | Glossary Off
Versions: 1 2 3 4 5 6 7 8 9 10 11 12 13 14 15 16 17 18

000
FTUS43 KMPX 172300
TAFRWF
TAF
KRWF 172339Z 1800/1824 14004KT P6SM VCSH SCT020 BKN040
     FM180200 18004KT P6SM BKN050
     FM181000 21005KT 6SM BR OVC015
      TEMPO 1810/1814 2SM +TSRA OVC020CB
     FM181400 23007KT P6SM SCT025 BKN040
     FM182000 27010KT P6SM VCSH BKN060=

USA.gov is the U.S. government's official web portal to all federal, state and local government web resources and services.